createdAt,value
2022-10-12T00:02:11.163Z,60.55
2022-10-12T00:04:38.856Z,60.51
2022-10-12T00:07:06.165Z,60.39
2022-10-12T00:09:33.550Z,60.76
2022-10-12T00:12:01.122Z,60.90
2022-10-12T00:14:28.623Z,60.66
2022-10-12T00:16:55.942Z,60.87
2022-10-12T00:19:23.502Z,60.61
2022-10-12T00:21:50.821Z,60.78
2022-10-12T00:24:18.192Z,60.69
2022-10-12T00:26:45.780Z,60.47
2022-10-12T00:29:13.096Z,60.54
2022-10-12T00:31:40.415Z,60.60
2022-10-12T00:34:08.003Z,60.22
2022-10-12T00:36:36.121Z,60.24
2022-10-12T00:39:05.857Z,60.37
2022-10-12T00:41:37.255Z,60.11
2022-10-12T00:44:04.712Z,60.20
2022-10-12T00:46:44.864Z,60.07
2022-10-12T00:49:20.847Z,60.02
2022-10-12T00:51:52.533Z,60.01
2022-10-12T00:54:24.398Z,59.80
2022-10-12T00:56:53.503Z,60.06
2022-10-12T00:59:24.596Z,59.66
2022-10-12T01:01:51.927Z,59.61
2022-10-12T01:04:19.527Z,59.66
2022-10-12T01:06:47.112Z,59.97
2022-10-12T01:09:14.827Z,59.81
2022-10-12T01:11:42.124Z,60.54
2022-10-12T01:14:09.737Z,60.39
2022-10-12T01:16:58.368Z,60.32
2022-10-12T01:19:54.980Z,60.24
2022-10-12T01:22:24.528Z,60.26
2022-10-12T01:25:19.763Z,60.22
2022-10-12T01:27:52.312Z,59.94
2022-10-12T01:30:22.213Z,60.05
2022-10-12T01:33:10.172Z,60.51
2022-10-12T01:35:55.799Z,60.48
2022-10-12T01:38:45.181Z,60.58
2022-10-12T01:41:49.323Z,60.86
2022-10-12T01:44:24.095Z,60.76
2022-10-12T01:46:53.796Z,61.00
2022-10-12T01:49:26.013Z,61.14
2022-10-12T01:52:14.942Z,61.32
2022-10-12T01:55:07.239Z,61.42
2022-10-12T01:57:53.707Z,61.49
2022-10-12T02:00:20.998Z,61.46
2022-10-12T02:03:15.694Z,61.34
2022-10-12T02:06:14.212Z,61.94
2022-10-12T02:09:04.100Z,61.66
2022-10-12T02:11:34.524Z,61.36
2022-10-12T02:14:08.071Z,61.37
2022-10-12T02:16:39.816Z,61.79
2022-10-12T02:19:09.833Z,61.37
2022-10-12T02:21:38.179Z,61.46
2022-10-12T02:24:08.260Z,61.18
2022-10-12T02:26:37.884Z,61.12
2022-10-12T02:29:08.659Z,61.00
2022-10-12T02:31:39.203Z,61.31
2022-10-12T02:34:14.418Z,60.84
2022-10-12T02:36:50.178Z,61.04
2022-10-12T02:39:27.408Z,61.08
2022-10-12T02:41:57.735Z,60.78
2022-10-12T02:44:29.052Z,60.82
2022-10-12T02:46:57.914Z,61.04
2022-10-12T02:49:26.195Z,61.07
2022-10-12T02:51:54.695Z,60.67
2022-10-12T02:54:22.062Z,60.53
2022-10-12T02:56:49.642Z,60.74
2022-10-12T02:59:18.419Z,60.56
2022-10-12T03:01:45.828Z,60.62
2022-10-12T03:04:13.443Z,60.32
2022-10-12T03:06:42.485Z,60.15
2022-10-12T03:09:10.030Z,60.22
2022-10-12T03:11:43.890Z,60.42
2022-10-12T03:14:12.286Z,60.43
2022-10-12T03:16:39.830Z,60.37
2022-10-12T03:19:07.393Z,60.45
2022-10-12T03:21:34.808Z,60.61
2022-10-12T03:24:02.364Z,60.25
2022-10-12T03:26:29.657Z,60.20
2022-10-12T03:28:57.077Z,60.54
2022-10-12T03:31:24.913Z,60.25
2022-10-12T03:33:52.318Z,60.32
2022-10-12T03:36:19.626Z,60.36
2022-10-12T03:38:47.216Z,60.55
2022-10-12T03:41:14.540Z,60.67
2022-10-12T03:43:41.843Z,60.56
2022-10-12T03:46:09.426Z,60.85
2022-10-12T03:48:37.007Z,60.98
2022-10-12T03:51:04.388Z,60.59
2022-10-12T03:53:31.943Z,61.01
2022-10-12T03:55:59.247Z,61.06
2022-10-12T03:58:26.530Z,61.27
2022-10-12T04:00:54.931Z,61.41
2022-10-12T04:03:22.722Z,61.33
2022-10-12T04:05:56.946Z,61.45
2022-10-12T04:08:24.787Z,61.35
2022-10-12T04:10:52.163Z,61.22
2022-10-12T04:13:19.786Z,61.30
2022-10-12T04:15:47.542Z,61.02
2022-10-12T04:18:14.943Z,60.93
2022-10-12T04:20:42.318Z,61.10
2022-10-12T04:23:09.897Z,60.97
2022-10-12T04:25:37.181Z,60.65
2022-10-12T04:28:04.457Z,60.85
2022-10-12T04:30:33.093Z,60.72
2022-10-12T04:33:00.526Z,60.73
2022-10-12T04:35:27.821Z,60.50
2022-10-12T04:37:55.363Z,60.68
2022-10-12T04:40:22.698Z,60.83
2022-10-12T04:42:50.045Z,60.68
2022-10-12T04:45:17.611Z,61.04
2022-10-12T04:47:44.890Z,60.97
2022-10-12T04:50:12.228Z,60.89
2022-10-12T04:52:39.861Z,60.83
2022-10-12T04:55:07.688Z,61.04
2022-10-12T04:57:35.026Z,61.05
2022-10-12T05:00:03.318Z,60.92
2022-10-12T05:02:30.713Z,60.99
2022-10-12T05:04:58.127Z,60.81
2022-10-12T05:07:25.691Z,61.25
2022-10-12T05:09:53.621Z,61.31
2022-10-12T05:12:20.899Z,61.30
2022-10-12T05:14:48.461Z,61.08
2022-10-12T05:17:15.774Z,61.16
2022-10-12T05:19:43.048Z,61.01
2022-10-12T05:22:10.675Z,60.91
2022-10-12T05:24:38.274Z,61.17
2022-10-12T05:27:05.803Z,60.96
2022-10-12T05:29:33.393Z,61.27
2022-10-12T05:32:00.660Z,61.66
2022-10-12T05:34:27.946Z,61.69
2022-10-12T05:36:55.520Z,62.04
2022-10-12T05:39:22.815Z,61.86
2022-10-12T05:41:51.331Z,62.13
2022-10-12T05:44:18.846Z,62.37
2022-10-12T05:46:46.164Z,62.37
2022-10-12T05:49:13.459Z,62.94
2022-10-12T05:51:41.003Z,62.51
2022-10-12T05:54:08.392Z,62.24
2022-10-12T05:56:35.665Z,61.94
2022-10-12T05:59:04.043Z,62.19
2022-10-12T06:01:31.377Z,62.53
2022-10-12T06:03:59.020Z,62.60
2022-10-12T06:06:26.427Z,62.75
2022-10-12T06:08:53.795Z,62.57
2022-10-12T06:11:21.454Z,62.49
2022-10-12T06:13:48.794Z,62.36
2022-10-12T06:16:16.087Z,62.18
2022-10-12T06:18:43.645Z,62.16
2022-10-12T06:23:58.492Z,61.32
2022-10-12T06:26:25.764Z,60.27
2022-10-12T06:28:53.156Z,59.37
2022-10-12T06:31:21.011Z,58.54
2022-10-12T06:33:50.849Z,56.27
2022-10-12T06:36:18.245Z,56.10
2022-10-12T06:38:45.832Z,56.37
2022-10-12T06:41:13.124Z,57.84
2022-10-12T06:43:40.440Z,56.22
2022-10-12T06:46:08.439Z,55.81
2022-10-12T06:48:35.741Z,54.91
2022-10-12T06:51:03.092Z,54.18
2022-10-12T06:53:32.897Z,53.89
2022-10-12T06:56:00.175Z,53.61
2022-10-12T06:58:27.475Z,53.93
2022-10-12T07:00:55.271Z,53.56
2022-10-12T07:03:22.583Z,53.89
2022-10-12T07:05:49.876Z,54.12
2022-10-12T07:08:17.724Z,54.11
2022-10-12T07:10:45.041Z,54.25
2022-10-12T07:13:12.385Z,54.18
2022-10-12T07:15:39.962Z,53.97
2022-10-12T07:18:07.267Z,54.07
2022-10-12T07:20:34.609Z,54.09
2022-10-12T07:23:02.274Z,53.52
2022-10-12T07:25:29.788Z,51.89
2022-10-12T07:27:57.188Z,51.77
2022-10-12T07:30:24.747Z,51.74
2022-10-12T07:32:54.285Z,51.85
2022-10-12T07:35:21.960Z,52.47
2022-10-12T07:37:50.029Z,52.36
2022-10-12T07:40:17.311Z,51.66
2022-10-12T07:43:05.400Z,51.83
2022-10-12T07:45:33.756Z,50.85
2022-10-12T07:48:01.047Z,50.43
2022-10-12T07:50:28.371Z,50.28
2022-10-12T07:52:56.008Z,52.93
2022-10-12T07:55:23.311Z,51.98
2022-10-12T07:57:50.651Z,49.73
2022-10-12T08:00:18.446Z,49.27
2022-10-12T08:02:46.048Z,49.20
2022-10-12T08:05:13.367Z,49.08
2022-10-12T08:07:41.341Z,48.93
2022-10-12T08:10:09.547Z,48.33
2022-10-12T08:12:36.877Z,47.93
2022-10-12T08:15:04.435Z,47.85
2022-10-12T08:17:32.035Z,48.08
2022-10-12T08:19:59.350Z,48.08
2022-10-12T08:22:26.677Z,48.36
2022-10-12T08:24:54.290Z,48.06
2022-10-12T08:27:21.861Z,47.49
2022-10-12T08:29:49.143Z,47.25
2022-10-12T08:32:16.739Z,47.37
2022-10-12T08:34:44.053Z,47.01
2022-10-12T08:37:11.376Z,46.86
2022-10-12T08:39:38.980Z,47.08
2022-10-12T08:42:34.583Z,46.72
2022-10-12T08:45:10.216Z,46.48
2022-10-12T08:47:51.476Z,46.90
2022-10-12T08:50:59.045Z,46.97
2022-10-12T08:53:32.471Z,46.40
2022-10-12T08:56:01.377Z,46.62
2022-10-12T08:58:32.509Z,46.71
2022-10-12T09:01:18.612Z,46.61
2022-10-12T09:03:57.284Z,45.26
2022-10-12T09:06:30.241Z,46.28
2022-10-12T09:09:52.209Z,46.38
2022-10-12T09:12:47.968Z,45.84
2022-10-12T09:15:19.556Z,46.98
2022-10-12T09:17:55.624Z,46.59
2022-10-12T09:20:23.945Z,45.84
2022-10-12T09:22:55.610Z,46.02
2022-10-12T09:25:25.193Z,46.39
2022-10-12T09:27:53.926Z,45.72
2022-10-12T09:30:21.350Z,45.61
2022-10-12T09:33:15.509Z,45.60
2022-10-12T09:35:44.239Z,45.71
2022-10-12T09:38:11.989Z,45.49
2022-10-12T09:40:39.694Z,45.75
2022-10-12T09:43:07.590Z,45.57
2022-10-12T09:45:35.250Z,45.71
2022-10-12T09:48:14.477Z,45.33
2022-10-12T09:50:56.956Z,45.36
2022-10-12T09:53:27.274Z,45.70
2022-10-12T09:56:19.719Z,45.51
2022-10-12T09:58:52.437Z,45.19
2022-10-12T10:01:25.939Z,45.59
2022-10-12T10:04:19.003Z,45.05
2022-10-12T10:06:47.019Z,44.57
2022-10-12T10:09:31.932Z,44.50
2022-10-12T10:12:15.123Z,44.81
2022-10-12T10:14:43.955Z,45.15
2022-10-12T10:17:16.066Z,44.21
2022-10-12T10:19:51.806Z,44.03
2022-10-12T10:22:19.755Z,44.34
2022-10-12T10:25:00.214Z,44.04
2022-10-12T10:27:39.816Z,44.07
2022-10-12T10:30:30.089Z,43.31
2022-10-12T10:33:16.706Z,44.05
2022-10-12T10:36:20.482Z,44.07
2022-10-12T10:39:04.727Z,43.57
2022-10-12T10:41:33.824Z,44.67
2022-10-12T10:44:01.483Z,43.11
2022-10-12T10:46:34.641Z,42.97
2022-10-12T10:49:07.165Z,43.14
2022-10-12T10:51:47.844Z,43.17
2022-10-12T10:54:28.386Z,43.62
2022-10-12T10:57:05.337Z,43.70
2022-10-12T10:59:52.579Z,42.94
2022-10-12T11:02:31.932Z,42.66
2022-10-12T11:05:05.649Z,43.13
2022-10-12T11:07:41.505Z,42.61
2022-10-12T11:10:31.068Z,42.80
2022-10-12T11:13:20.820Z,43.54
2022-10-12T11:16:03.260Z,42.88
2022-10-12T11:18:38.634Z,43.00
2022-10-12T11:21:16.060Z,42.69
2022-10-12T11:24:08.811Z,42.94
2022-10-12T11:26:38.935Z,42.74
2022-10-12T11:29:06.780Z,42.61
2022-10-12T11:31:37.792Z,42.11
2022-10-12T11:34:13.306Z,42.11
2022-10-12T11:36:55.894Z,42.81
2022-10-12T11:39:39.855Z,43.59
2022-10-12T11:42:28.138Z,43.23
2022-10-12T11:44:55.751Z,42.92
2022-10-12T11:47:41.776Z,42.67
2022-10-12T11:50:29.442Z,42.39
2022-10-12T11:52:57.691Z,42.05
2022-10-12T11:55:46.804Z,41.42
2022-10-12T11:58:31.579Z,41.25
2022-10-12T12:01:34.733Z,41.44
2022-10-12T12:07:23.183Z,41.19
2022-10-12T12:09:51.624Z,41.03
2022-10-12T12:12:27.349Z,40.92
2022-10-12T12:14:54.975Z,40.64
2022-10-12T12:17:22.353Z,40.68
2022-10-12T12:19:54.362Z,40.85
2022-10-12T12:22:30.869Z,41.34
2022-10-12T12:25:06.834Z,41.09
2022-10-12T12:27:45.107Z,41.25
2022-10-12T12:30:18.230Z,41.07
2022-10-12T12:32:51.916Z,40.70
2022-10-12T12:35:25.939Z,40.54
2022-10-12T12:38:07.783Z,40.99
2022-10-12T12:40:35.367Z,41.04
2022-10-12T12:43:21.008Z,41.38
2022-10-12T12:46:07.944Z,41.13
2022-10-12T12:48:55.273Z,41.70
2022-10-12T12:51:25.848Z,41.66
2022-10-12T12:54:00.201Z,41.31
2022-10-12T12:56:41.464Z,41.48
2022-10-12T12:59:31.935Z,41.84
2022-10-12T13:02:23.688Z,41.03
2022-10-12T13:05:15.875Z,41.44
2022-10-12T13:07:49.325Z,41.46
2022-10-12T13:10:25.602Z,41.33
2022-10-12T13:12:58.995Z,41.24
2022-10-12T13:15:49.001Z,41.05
2022-10-12T13:19:01.421Z,40.88
2022-10-12T13:21:31.875Z,40.90
2022-10-12T13:24:11.129Z,40.49
2022-10-12T13:26:39.588Z,40.59
2022-10-12T13:29:15.587Z,41.08
2022-10-12T13:31:45.465Z,41.23
2022-10-12T13:34:19.696Z,41.91
2022-10-12T13:36:59.535Z,41.82
2022-10-12T13:39:27.737Z,41.61
2022-10-12T13:41:58.751Z,41.40
2022-10-12T13:44:28.420Z,41.40
2022-10-12T13:47:01.221Z,42.07
2022-10-12T13:49:31.728Z,41.45
2022-10-12T13:52:03.544Z,41.69
2022-10-12T13:54:46.135Z,41.77
2022-10-12T13:57:42.845Z,41.91
2022-10-12T14:00:16.323Z,41.48
2022-10-12T14:03:03.643Z,41.11
2022-10-12T14:05:32.567Z,41.29
2022-10-12T14:08:02.909Z,41.25
2022-10-12T14:10:33.205Z,41.19
2022-10-12T14:13:04.956Z,41.01
2022-10-12T14:15:34.456Z,41.05
2022-10-12T14:18:02.047Z,40.66
2022-10-12T14:20:37.073Z,41.41
2022-10-12T14:23:12.166Z,41.75
2022-10-12T14:25:50.835Z,41.47
2022-10-12T14:28:33.053Z,41.21
2022-10-12T14:31:00.428Z,41.92
2022-10-12T14:33:28.111Z,41.75
2022-10-12T14:36:12.739Z,41.42
2022-10-12T14:38:46.830Z,41.16
2022-10-12T14:41:36.203Z,42.18
2022-10-12T14:44:11.046Z,42.78
2022-10-12T14:46:55.620Z,42.93
2022-10-12T14:49:25.842Z,42.82
2022-10-12T14:51:54.390Z,43.03
2022-10-12T14:54:21.861Z,42.92
2022-10-12T14:56:49.489Z,42.50
2022-10-12T14:59:16.863Z,42.74
2022-10-12T15:01:47.469Z,43.11
2022-10-12T15:04:18.708Z,43.54
2022-10-12T15:06:50.654Z,44.03
2022-10-12T15:09:18.695Z,44.00
2022-10-12T15:11:46.013Z,43.84
2022-10-12T15:14:14.414Z,45.09
2022-10-12T15:16:41.993Z,45.89
2022-10-12T15:19:09.289Z,46.40
2022-10-12T15:21:36.581Z,47.05
2022-10-12T15:24:12.614Z,47.43
2022-10-12T15:26:42.421Z,48.17
2022-10-12T15:29:10.149Z,48.37
2022-10-12T15:31:37.437Z,48.37
2022-10-12T15:34:12.532Z,48.75
2022-10-12T15:36:40.504Z,48.88
2022-10-12T15:39:08.191Z,49.40
2022-10-12T15:41:35.492Z,49.83
2022-10-12T15:44:03.265Z,50.70
2022-10-12T15:46:30.560Z,50.49
2022-10-12T15:48:57.863Z,50.26
2022-10-12T15:51:25.468Z,50.28
2022-10-12T15:53:54.051Z,50.66
2022-10-12T15:56:21.916Z,50.91
2022-10-12T15:58:49.668Z,51.22
2022-10-12T16:01:19.652Z,51.32
2022-10-12T16:03:48.150Z,51.43
2022-10-12T16:06:15.951Z,51.48
2022-10-12T16:08:43.476Z,51.62
2022-10-12T16:11:16.466Z,51.76
2022-10-12T16:13:53.879Z,51.85
2022-10-12T16:16:24.408Z,51.87
2022-10-12T16:18:53.874Z,52.33
2022-10-12T16:21:21.393Z,52.86
2022-10-12T16:23:48.953Z,52.98
2022-10-12T16:26:16.608Z,53.22
2022-10-12T16:28:45.266Z,53.43
2022-10-12T16:31:15.831Z,53.59
2022-10-12T16:33:44.644Z,53.86
2022-10-12T16:36:14.944Z,53.89
2022-10-12T16:38:43.393Z,54.39
2022-10-12T16:41:16.051Z,54.67
2022-10-12T16:43:44.098Z,54.96
2022-10-12T16:46:11.423Z,55.12
2022-10-12T16:48:38.716Z,55.24
2022-10-12T16:51:10.365Z,55.44
2022-10-12T16:53:37.975Z,55.68
2022-10-12T16:56:05.776Z,55.69
2022-10-12T16:58:33.162Z,56.03
2022-10-12T17:01:11.517Z,56.49
2022-10-12T17:03:39.441Z,56.75
2022-10-12T17:06:07.187Z,56.57
2022-10-12T17:08:35.615Z,56.40
2022-10-12T17:11:10.803Z,56.39
2022-10-12T17:13:39.222Z,56.20
2022-10-12T17:16:26.988Z,56.31
2022-10-12T17:18:59.180Z,56.50
2022-10-12T17:21:28.015Z,56.68
2022-10-12T17:23:57.108Z,56.61
2022-10-12T17:26:24.813Z,56.57
2022-10-12T17:28:52.393Z,56.57
2022-10-12T17:31:19.843Z,56.54
2022-10-12T17:33:47.420Z,56.47
2022-10-12T17:36:15.848Z,56.51
2022-10-12T17:38:44.749Z,56.38
2022-10-12T17:41:12.437Z,56.37
2022-10-12T17:43:39.991Z,56.77
2022-10-12T17:46:07.410Z,56.89
2022-10-12T17:48:34.699Z,56.84
2022-10-12T17:51:09.587Z,56.80
2022-10-12T17:53:37.013Z,56.77
2022-10-12T17:56:05.663Z,56.72
2022-10-12T17:58:33.076Z,56.89
2022-10-12T18:01:08.386Z,56.89
2022-10-12T18:03:36.109Z,56.85
2022-10-12T18:06:09.154Z,56.83
2022-10-12T18:08:37.001Z,56.72
2022-10-12T18:11:05.548Z,56.97
2022-10-12T18:13:33.911Z,56.80
2022-10-12T18:16:02.212Z,56.76
2022-10-12T18:18:29.793Z,56.90
2022-10-12T18:20:57.176Z,57.10
2022-10-12T18:23:24.791Z,57.08
2022-10-12T18:25:52.115Z,57.09
2022-10-12T18:28:19.597Z,56.99
2022-10-12T18:30:50.482Z,57.11
2022-10-12T18:33:18.019Z,57.11
2022-10-12T18:35:45.323Z,57.30
2022-10-12T18:38:13.105Z,57.51
2022-10-12T18:40:42.413Z,57.82
2022-10-12T18:43:10.465Z,57.55
2022-10-12T18:45:42.720Z,57.56
2022-10-12T18:48:11.243Z,57.62
2022-10-12T18:50:39.627Z,57.84
2022-10-12T18:53:06.927Z,58.42
2022-10-12T18:55:38.266Z,58.84
2022-10-12T18:58:05.873Z,58.25
2022-10-12T19:00:33.344Z,57.65
2022-10-12T19:03:00.684Z,57.41
2022-10-12T19:05:28.272Z,57.85
2022-10-12T19:07:56.600Z,57.81
2022-10-12T19:10:24.017Z,57.68
2022-10-12T19:12:51.592Z,57.74
2022-10-12T19:15:18.895Z,57.72
2022-10-12T19:17:46.191Z,57.72
2022-10-12T19:20:13.772Z,57.94
2022-10-12T19:22:41.229Z,57.96
2022-10-12T19:25:08.846Z,58.03
2022-10-12T19:27:36.415Z,58.20
2022-10-12T19:30:04.819Z,58.38
2022-10-12T19:32:33.216Z,58.38
2022-10-12T19:35:00.792Z,58.47
2022-10-12T19:37:28.071Z,58.29
2022-10-12T19:39:55.384Z,58.41
2022-10-12T19:42:22.964Z,58.46
2022-10-12T19:44:50.291Z,58.29
2022-10-12T19:47:17.821Z,58.11
2022-10-12T19:49:45.556Z,58.48
2022-10-12T19:52:12.891Z,58.39
2022-10-12T19:54:40.191Z,58.68
2022-10-12T19:57:07.799Z,58.20
2022-10-12T19:59:35.339Z,58.39
2022-10-12T20:02:02.654Z,58.35
2022-10-12T20:04:30.232Z,58.49
2022-10-12T20:06:57.538Z,58.23
2022-10-12T20:09:24.872Z,58.35
2022-10-12T20:11:52.487Z,58.58
2022-10-12T20:14:19.816Z,58.78
2022-10-12T20:16:47.116Z,58.81
2022-10-12T20:19:14.720Z,58.76
2022-10-12T20:21:42.055Z,58.91
2022-10-12T20:24:09.912Z,58.82
2022-10-12T20:26:37.543Z,59.06
2022-10-12T20:29:05.140Z,59.16
2022-10-12T20:31:32.420Z,59.05
2022-10-12T20:34:00.071Z,59.05
2022-10-12T20:36:29.362Z,58.76
2022-10-12T20:38:58.123Z,58.95
2022-10-12T20:41:26.486Z,58.85
2022-10-12T20:43:55.622Z,58.77
2022-10-12T20:46:23.178Z,58.99
2022-10-12T20:48:54.602Z,58.98
2022-10-12T20:51:28.465Z,58.89
2022-10-12T20:53:59.137Z,58.98
2022-10-12T20:56:28.067Z,59.14
2022-10-12T20:58:55.719Z,59.16
2022-10-12T21:01:23.751Z,59.33
2022-10-12T21:03:52.388Z,59.01
2022-10-12T21:06:21.474Z,58.79
2022-10-12T21:08:53.563Z,58.97
2022-10-12T21:11:22.155Z,58.71
2022-10-12T21:13:50.091Z,58.76
2022-10-12T21:16:17.609Z,59.02
2022-10-12T21:18:45.197Z,59.10
2022-10-12T21:21:16.113Z,59.71
2022-10-12T21:23:45.010Z,59.49
2022-10-12T21:26:17.458Z,59.51
2022-10-12T21:28:45.708Z,59.59
2022-10-12T21:31:14.134Z,59.61
2022-10-12T21:33:41.816Z,59.84
2022-10-12T21:36:10.450Z,59.72
2022-10-12T21:38:38.875Z,59.54
2022-10-12T21:41:07.473Z,59.57
2022-10-12T21:43:35.432Z,59.59
2022-10-12T21:46:08.162Z,59.73
2022-10-12T21:48:35.683Z,59.53
2022-10-12T21:51:03.909Z,59.58
2022-10-12T21:53:31.880Z,59.25
2022-10-12T21:55:59.187Z,59.62
2022-10-12T21:58:26.736Z,59.49
2022-10-12T22:01:03.910Z,59.49
2022-10-12T22:03:31.907Z,59.27
2022-10-12T22:05:59.404Z,59.29
2022-10-12T22:08:26.702Z,59.51
2022-10-12T22:10:54.420Z,59.60
2022-10-12T22:13:21.728Z,59.79
2022-10-12T22:16:00.354Z,59.74
2022-10-12T22:18:27.898Z,59.91
2022-10-12T22:20:55.215Z,59.92
2022-10-12T22:23:22.569Z,59.73
2022-10-12T22:25:50.374Z,59.88
2022-10-12T22:28:17.679Z,60.13
2022-10-12T22:30:44.989Z,60.03
2022-10-12T22:33:12.548Z,59.85
2022-10-12T22:35:39.828Z,60.04
2022-10-12T22:38:07.119Z,60.09
2022-10-12T22:40:34.727Z,59.92
2022-10-12T22:43:02.024Z,59.70
2022-10-12T22:45:29.307Z,59.45
2022-10-12T22:47:56.862Z,59.27
2022-10-12T22:50:24.408Z,59.39
2022-10-12T22:52:51.687Z,59.48
2022-10-12T22:55:19.243Z,59.36
2022-10-12T22:57:46.515Z,59.43
2022-10-12T23:00:14.712Z,59.53
2022-10-12T23:02:42.258Z,59.76
2022-10-12T23:05:09.673Z,59.73
2022-10-12T23:07:36.955Z,59.86
2022-10-12T23:10:04.961Z,59.99
2022-10-12T23:12:33.232Z,59.74
2022-10-12T23:15:00.525Z,60.07
2022-10-12T23:17:28.092Z,59.86
2022-10-12T23:19:55.399Z,60.25
2022-10-12T23:22:22.838Z,60.02
2022-10-12T23:24:50.466Z,59.96
2022-10-12T23:27:17.974Z,59.90
2022-10-12T23:29:46.721Z,59.74
2022-10-12T23:32:16.846Z,59.90
2022-10-12T23:34:44.458Z,59.84
2022-10-12T23:37:11.780Z,59.44
2022-10-12T23:39:39.336Z,59.70
2022-10-12T23:42:07.408Z,59.64
2022-10-12T23:44:34.700Z,59.72
2022-10-12T23:47:02.247Z,59.80
2022-10-12T23:49:29.524Z,59.92
2022-10-12T23:52:01.649Z,59.99
2022-10-12T23:54:29.190Z,59.74
2022-10-12T23:56:56.506Z,59.64
2022-10-12T23:59:23.786Z,59.80
